Time;durP1;ratioP1;P1;durP2;ratioP2;P2;SDS_P1;SDS_P2;PMS_P1;PMS_P2;Temp;Humidity;BMP_temperature;BMP_pressure;BME280_temperature;BME280_humidity;BME280_pressure;Samples;Min_cycle;Max_cycle;Signal;HPM_P1;HPM_P2
2020/12/16 00:00:13;;;;;;;14.25;1.20;;;9.90;90.10;;;;;;5033884;28;20041;-69
2020/12/16 00:02:40;;;;;;;10.68;1.17;;;9.40;89.80;;;;;;5034812;28;20041;-70
2020/12/16 00:05:09;;;;;;;10.68;1.17;;;9.30;89.60;;;;;;5034877;28;20118;-70
2020/12/16 00:07:35;;;;;;;10.02;1.00;;;9.40;89.90;;;;;;5034959;28;20045;-69
2020/12/16 00:10:01;;;;;;;10.52;1.10;;;9.90;90.10;;;;;;5034961;28;20052;-69
2020/12/16 00:12:29;;;;;;;10.98;1.15;;;9.70;90.10;;;;;;5034882;28;20076;-69
2020/12/16 00:14:56;;;;;;;14.68;1.25;;;9.70;90.20;;;;;;5034359;28;20036;-69
2020/12/16 00:17:22;;;;;;;12.00;1.30;;;9.80;90.10;;;;;;5035031;28;20038;-70
2020/12/16 00:19:49;;;;;;;13.00;1.25;;;9.60;90.00;;;;;;5034370;28;20400;-69
2020/12/16 00:22:15;;;;;;;11.75;1.10;;;10.00;90.20;;;;;;5034904;28;20373;-69
2020/12/16 00:24:42;;;;;;;12.32;1.10;;;10.00;90.20;;;;;;5034726;28;20560;-69
2020/12/16 00:27:11;;;;;;;10.00;1.23;;;10.00;90.30;;;;;;5034480;28;20124;-69
2020/12/16 00:29:38;;;;;;;11.85;1.45;;;10.00;90.40;;;;;;5034342;28;20080;-69
2020/12/16 00:32:05;;;;;;;11.32;1.38;;;9.60;90.20;;;;;;5034177;28;20049;-69
2020/12/16 00:34:31;;;;;;;10.73;1.50;;;9.90;90.40;;;;;;5034472;28;20037;-69
2020/12/16 00:36:57;;;;;;;14.57;1.50;;;9.80;90.30;;;;;;5034530;28;20055;-69
2020/12/16 00:39:23;;;;;;;13.55;1.83;;;10.00;90.40;;;;;;5034431;28;20501;-69
2020/12/16 00:41:49;;;;;;;11.38;1.10;;;9.80;90.40;;;;;;5033190;28;20045;-69
2020/12/16 00:44:14;;;;;;;16.77;1.67;;;9.90;90.40;;;;;;5034577;28;20487;-69
2020/12/16 00:46:40;;;;;;;12.95;1.67;;;9.70;90.40;;;;;;5033869;28;20128;-69
2020/12/16 00:49:06;;;;;;;14.55;1.38;;;10.10;90.40;;;;;;5034543;28;20041;-70
2020/12/16 00:51:32;;;;;;;13.80;1.67;;;10.20;90.50;;;;;;5034259;28;20045;-69
2020/12/16 00:53:58;;;;;;;11.85;1.60;;;9.70;90.40;;;;;;5016863;28;20037;-70
2020/12/16 00:56:24;;;;;;;12.98;1.30;;;10.10;90.50;;;;;;5034190;28;20477;-69
2020/12/16 00:58:50;;;;;;;14.18;1.63;;;9.90;90.40;;;;;;5034024;28;20116;-69
2020/12/16 01:01:16;;;;;;;14.27;1.50;;;10.00;90.40;;;;;;5034139;28;20038;-69
2020/12/16 01:03:41;;;;;;;14.13;1.60;;;9.70;90.40;;;;;;5033782;28;20088;-69
2020/12/16 01:06:07;;;;;;;12.13;1.75;;;9.60;90.40;;;;;;5033872;28;20121;-70
2020/12/16 01:08:33;;;;;;;14.25;1.35;;;10.00;90.60;;;;;;5033824;28;20496;-69
2020/12/16 01:10:59;;;;;;;15.60;1.70;;;9.80;90.50;;;;;;5033922;28;20063;-70
2020/12/16 01:13:25;;;;;;;8.65;1.67;;;9.90;90.60;;;;;;5033710;28;20480;-70
2020/12/16 01:15:51;;;;;;;15.15;1.70;;;9.70;90.50;;;;;;5034167;28;20092;-70
2020/12/16 01:18:17;;;;;;;10.25;1.40;;;9.50;90.50;;;;;;5034103;28;20077;-69
2020/12/16 01:20:42;;;;;;;11.35;1.50;;;9.90;90.50;;;;;;5033981;28;20110;-69
2020/12/16 01:23:09;;;;;;;10.57;1.60;;;10.10;90.60;;;;;;5034046;28;20072;-70
2020/12/16 01:25:35;;;;;;;11.85;1.88;;;9.70;90.60;;;;;;5033732;28;20037;-69
2020/12/16 01:28:01;;;;;;;16.15;1.50;;;9.70;90.50;;;;;;5033511;28;20524;-69
2020/12/16 01:30:28;;;;;;;11.05;1.55;;;9.50;90.50;;;;;;5034216;28;20480;-69
2020/12/16 01:32:55;;;;;;;14.95;2.03;;;9.90;90.70;;;;;;5033460;28;20072;-69
2020/12/16 01:35:22;;;;;;;9.35;0.93;;;9.90;90.70;;;;;;5033866;28;20037;-69
2020/12/16 01:37:48;;;;;;;7.60;1.67;;;9.70;90.70;;;;;;5033433;28;20159;-69
2020/12/16 01:40:14;;;;;;;11.43;1.35;;;10.10;90.70;;;;;;5033749;28;20512;-69
2020/12/16 01:42:41;;;;;;;10.23;1.20;;;9.90;90.70;;;;;;5033462;28;20381;-69
2020/12/16 01:45:20;;;;;;;8.32;1.05;;;9.80;90.50;;;;;;5033763;28;20048;-69
2020/12/16 01:47:46;;;;;;;11.38;1.42;;;9.80;90.60;;;;;;5033462;28;20072;-69
2020/12/16 01:50:13;;;;;;;7.40;1.52;;;9.90;90.40;;;;;;5033545;28;20492;-69
2020/12/16 01:52:39;;;;;;;10.10;1.60;;;9.80;90.50;;;;;;5033894;28;20105;-69
2020/12/16 01:55:11;;;;;;;6.82;1.00;;;9.30;90.30;;;;;;5033750;28;20076;-69
2020/12/16 01:57:45;;;;;;;9.30;1.30;;;9.50;90.40;;;;;;5033434;28;20037;-69
2020/12/16 02:00:12;;;;;;;8.40;1.23;;;9.70;90.50;;;;;;5033495;28;20049;-69
2020/12/16 02:02:57;;;;;;;9.70;1.50;;;9.50;90.50;;;;;;5033380;28;20041;-70
2020/12/16 02:05:24;;;;;;;5.03;1.13;;;9.50;90.70;;;;;;5032114;28;20037;-69
2020/12/16 02:07:54;;;;;;;6.40;1.50;;;9.80;90.60;;;;;;5033947;28;20049;-69
2020/12/16 02:10:20;;;;;;;7.32;1.48;;;9.70;90.60;;;;;;5036502;28;20025;-69
2020/12/16 02:12:46;;;;;;;9.73;1.30;;;9.80;90.70;;;;;;5036663;28;20120;-69
2020/12/16 02:15:12;;;;;;;6.25;1.20;;;9.70;90.60;;;;;;5036603;28;20022;-70
2020/12/16 02:17:38;;;;;;;6.93;1.17;;;9.90;90.70;;;;;;5036886;28;20053;-69
2020/12/16 02:20:07;;;;;;;5.10;1.15;;;9.70;90.60;;;;;;5036929;28;20038;-69
2020/12/16 02:22:33;;;;;;;9.05;1.27;;;9.80;90.70;;;;;;5018945;28;20045;-69
2020/12/16 02:24:59;;;;;;;3.38;1.00;;;10.00;90.60;;;;;;5036641;28;20149;-69
2020/12/16 02:27:25;;;;;;;5.68;1.33;;;9.70;90.50;;;;;;5036199;28;20488;-69
2020/12/16 02:29:51;;;;;;;4.85;0.88;;;9.90;90.40;;;;;;5036307;28;20433;-69
2020/12/16 02:32:18;;;;;;;6.45;1.40;;;9.60;90.30;;;;;;5036443;28;20111;-70
2020/12/16 02:34:45;;;;;;;7.03;1.17;;;9.80;90.40;;;;;;5036078;28;20045;-70
2020/12/16 02:37:10;;;;;;;5.57;1.40;;;9.70;90.50;;;;;;5036297;28;20037;-70
2020/12/16 02:39:36;;;;;;;4.45;1.25;;;9.90;90.50;;;;;;5036419;28;20530;-70
2020/12/16 02:42:05;;;;;;;4.55;1.20;;;9.70;90.40;;;;;;5036174;28;20037;-69
2020/12/16 02:44:31;;;;;;;4.45;1.20;;;9.50;90.30;;;;;;5036366;28;20037;-69
2020/12/16 02:46:59;;;;;;;3.28;0.82;;;9.90;90.40;;;;;;5036223;28;20095;-70
2020/12/16 02:49:25;;;;;;;4.35;1.17;;;9.70;90.40;;;;;;5036036;28;20037;-69
2020/12/16 02:51:51;;;;;;;5.97;1.10;;;9.70;90.30;;;;;;5036292;28;20079;-70
2020/12/16 02:54:17;;;;;;;4.93;1.13;;;9.60;90.40;;;;;;5036049;28;20040;-69
2020/12/16 02:56:50;;;;;;;6.20;0.82;;;9.80;90.40;;;;;;5035647;28;20065;-69
2020/12/16 02:59:17;;;;;;;2.90;0.70;;;9.70;90.40;;;;;;5034667;28;20047;-69
2020/12/16 03:01:43;;;;;;;2.63;1.00;;;9.90;90.40;;;;;;5035965;28;20045;-69
2020/12/16 03:04:09;;;;;;;5.30;0.80;;;9.60;90.30;;;;;;5035445;28;20099;-70
2020/12/16 03:06:35;;;;;;;4.00;0.90;;;9.40;90.20;;;;;;5035181;28;20033;-69
2020/12/16 03:09:01;;;;;;;3.33;0.80;;;9.90;90.40;;;;;;5036036;28;20041;-69
2020/12/16 03:11:27;;;;;;;3.33;1.02;;;9.90;90.40;;;;;;5035330;28;20040;-69
2020/12/16 03:13:52;;;;;;;3.58;0.90;;;9.70;90.30;;;;;;5035198;28;20045;-69
2020/12/16 03:16:21;;;;;;;2.92;0.88;;;9.40;90.20;;;;;;5034689;28;20116;-70
2020/12/16 03:18:47;;;;;;;3.05;0.70;;;9.50;90.30;;;;;;5034814;28;20045;-69
2020/12/16 03:21:23;;;;;;;2.38;0.90;;;9.60;90.30;;;;;;5035557;28;20497;-69
2020/12/16 03:23:50;;;;;;;3.35;0.82;;;9.70;90.20;;;;;;5035573;28;20111;-69
2020/12/16 03:26:17;;;;;;;5.72;0.77;;;9.70;90.10;;;;;;5052487;28;20052;-70
2020/12/16 03:28:43;;;;;;;4.65;0.90;;;9.50;90.00;;;;;;5041184;28;20049;-69
2020/12/16 03:31:09;;;;;;;3.42;0.80;;;9.70;90.10;;;;;;5035169;28;20044;-70
2020/12/16 03:33:35;;;;;;;3.40;0.65;;;9.80;90.30;;;;;;5038413;28;20118;-69
2020/12/16 03:36:01;;;;;;;3.83;0.50;;;9.60;90.20;;;;;;5055203;28;20072;-69
2020/12/16 03:38:27;;;;;;;3.67;0.82;;;9.80;90.40;;;;;;5055011;28;20048;-69
2020/12/16 03:40:53;;;;;;;2.80;0.80;;;10.00;90.30;;;;;;5055164;28;20044;-69
2020/12/16 03:43:18;;;;;;;3.20;0.70;;;10.00;90.30;;;;;;5054877;28;20037;-70
2020/12/16 03:45:44;;;;;;;1.83;0.63;;;9.60;90.10;;;;;;5054915;28;20036;-69
2020/12/16 03:48:10;;;;;;;3.38;0.80;;;9.90;90.10;;;;;;5054808;28;20044;-69
2020/12/16 03:50:36;;;;;;;2.25;0.57;;;9.80;90.00;;;;;;5054963;28;20388;-70
2020/12/16 03:53:02;;;;;;;2.65;0.50;;;9.90;90.00;;;;;;5037158;28;20079;-69
2020/12/16 03:55:28;;;;;;;2.13;0.57;;;9.90;90.00;;;;;;5054511;28;20033;-70
2020/12/16 03:57:53;;;;;;;1.92;0.50;;;10.10;90.10;;;;;;5054519;28;20495;-69
2020/12/16 04:00:19;;;;;;;2.50;0.47;;;9.70;89.80;;;;;;5054685;28;20515;-69
2020/12/16 04:02:45;;;;;;;1.33;0.52;;;9.80;90.00;;;;;;5054572;28;20056;-69
2020/12/16 04:05:11;;;;;;;1.90;0.57;;;10.10;90.00;;;;;;5054643;28;20032;-69
2020/12/16 04:07:36;;;;;;;3.00;0.60;;;9.80;89.90;;;;;;5054447;28;20040;-69
2020/12/16 04:10:03;;;;;;;1.60;0.43;;;9.80;89.70;;;;;;5054655;28;20051;-69
2020/12/16 04:12:28;;;;;;;1.33;0.52;;;9.90;89.80;;;;;;5054511;28;20041;-70
2020/12/16 04:14:54;;;;;;;2.38;0.70;;;9.90;89.70;;;;;;5034365;28;20037;-69
2020/12/16 04:17:20;;;;;;;1.88;0.60;;;10.10;90.10;;;;;;5034464;28;20107;-69
2020/12/16 04:19:46;;;;;;;3.20;0.57;;;10.20;89.70;;;;;;5034256;28;20117;-69
2020/12/16 04:22:12;;;;;;;2.55;0.57;;;10.20;89.50;;;;;;5034614;28;20041;-69
2020/12/16 04:24:37;;;;;;;3.95;0.50;;;10.30;89.70;;;;;;5034545;28;20492;-69
2020/12/16 04:27:03;;;;;;;2.63;0.50;;;9.60;89.40;;;;;;5034234;28;20041;-69
2020/12/16 04:29:29;;;;;;;1.33;0.47;;;10.00;89.60;;;;;;5034392;28;20050;-69
2020/12/16 04:31:55;;;;;;;1.35;0.60;;;9.90;89.40;;;;;;5033967;28;20052;-70
2020/12/16 04:34:21;;;;;;;1.67;0.47;;;9.90;89.60;;;;;;5034350;28;20029;-69
2020/12/16 04:36:51;;;;;;;3.03;0.40;;;10.20;89.70;;;;;;5034399;28;20053;-69
2020/12/16 04:39:17;;;;;;;3.17;0.40;;;10.20;89.20;;;;;;5034063;28;20049;-69
2020/12/16 04:41:43;;;;;;;3.13;0.68;;;10.00;88.70;;;;;;5032921;28;20500;-69
2020/12/16 04:44:12;;;;;;;2.47;0.30;;;10.20;88.80;;;;;;5034018;28;20061;-69
2020/12/16 04:46:40;;;;;;;2.28;0.68;;;10.10;88.70;;;;;;5034287;28;20119;-69
2020/12/16 04:49:09;;;;;;;1.38;0.30;;;10.00;88.40;;;;;;5033884;28;20037;-69
2020/12/16 04:51:35;;;;;;;0.65;0.40;;;10.20;88.60;;;;;;5033744;28;20095;-69
2020/12/16 04:54:02;;;;;;;1.95;0.30;;;9.90;88.50;;;;;;5033834;28;20147;-69
2020/12/16 04:56:31;;;;;;;1.92;0.35;;;10.00;88.70;;;;;;5033656;28;20045;-69
2020/12/16 04:58:57;;;;;;;1.17;0.38;;;10.10;88.50;;;;;;5033563;28;20048;-69
2020/12/16 05:01:23;;;;;;;1.88;0.20;;;9.60;88.30;;;;;;5033745;28;20037;-69
2020/12/16 05:03:48;;;;;;;2.60;0.47;;;10.10;88.60;;;;;;5033899;28;20092;-69
2020/12/16 05:06:33;;;;;;;2.50;0.30;;;10.00;88.70;;;;;;5022917;28;20048;-69
2020/12/16 05:09:10;;;;;;;2.10;0.30;;;9.80;88.70;;;;;;5032206;28;20033;-69
2020/12/16 05:11:44;;;;;;;0.80;0.30;;;9.80;88.70;;;;;;5033465;28;20124;-69
2020/12/16 05:14:16;;;;;;;0.88;0.40;;;9.70;88.60;;;;;;5031536;28;20037;-69
2020/12/16 05:16:56;;;;;;;1.95;0.40;;;9.80;88.40;;;;;;5014130;28;20128;-69
2020/12/16 05:19:36;;;;;;;0.90;0.30;;;9.50;88.40;;;;;;5013323;28;20050;-69
2020/12/16 05:22:22;;;;;;;1.35;0.35;;;9.50;88.50;;;;;;5013407;28;20057;-69
2020/12/16 05:24:51;;;;;;;4.63;0.38;;;9.60;89.20;;;;;;5013991;28;20073;-69
2020/12/16 05:27:20;;;;;;;2.15;0.30;;;9.90;89.30;;;;;;5013488;28;20049;-69
2020/12/16 05:29:49;;;;;;;1.00;0.38;;;9.60;89.10;;;;;;5022760;28;20037;-69
2020/12/16 05:32:19;;;;;;;3.13;0.50;;;9.80;89.40;;;;;;5030263;28;20041;-69
2020/12/16 05:34:46;;;;;;;3.33;0.57;;;9.80;89.10;;;;;;5032489;28;20500;-69
2020/12/16 05:37:41;;;;;;;3.33;0.50;;;9.80;89.90;;;;;;5020710;28;20092;-69
2020/12/16 05:40:10;;;;;;;1.97;0.40;;;9.90;89.70;;;;;;4998765;28;20096;-69
2020/12/16 05:42:37;;;;;;;1.10;0.35;;;9.70;90.00;;;;;;5012714;28;20037;-70
2020/12/16 05:45:14;;;;;;;4.00;0.52;;;10.20;89.80;;;;;;5024822;28;20089;-69
2020/12/16 05:47:56;;;;;;;1.27;0.32;;;10.30;89.60;;;;;;5033103;28;20072;-69
2020/12/16 05:50:22;;;;;;;2.97;0.60;;;10.00;89.40;;;;;;5030367;28;20128;-69
2020/12/16 05:52:48;;;;;;;5.40;0.40;;;10.60;89.70;;;;;;5029321;28;20042;-70
2020/12/16 05:55:28;;;;;;;2.15;0.38;;;10.40;89.30;;;;;;5026145;28;20052;-69
2020/12/16 05:58:15;;;;;;;1.70;0.20;;;10.20;88.90;;;;;;5025509;28;20037;-69
2020/12/16 06:00:49;;;;;;;2.05;0.40;;;10.60;89.30;;;;;;5027354;28;20072;-69
2020/12/16 06:03:17;;;;;;;0.30;0.10;;;10.40;88.60;;;;;;5028772;28;20529;-69
2020/12/16 06:05:51;;;;;;;3.28;0.40;;;10.70;89.10;;;;;;5029953;28;20038;-69
2020/12/16 06:08:19;;;;;;;2.85;0.43;;;10.50;89.10;;;;;;5025924;28;20080;-69
2020/12/16 06:10:47;;;;;;;1.35;0.47;;;10.40;88.60;;;;;;5027298;28;20092;-69
2020/12/16 06:13:15;;;;;;;5.28;0.30;;;10.70;89.30;;;;;;5027115;28;20045;-70
2020/12/16 06:15:59;;;;;;;1.73;0.40;;;10.40;88.70;;;;;;5026240;28;20086;-69
2020/12/16 06:18:31;;;;;;;3.63;0.50;;;10.50;88.80;;;;;;5036185;28;20179;-69
2020/12/16 06:20:58;;;;;;;3.70;0.60;;;10.70;88.10;;;;;;5036724;28;20404;-69
2020/12/16 06:23:30;;;;;;;4.90;0.50;;;10.50;88.60;;;;;;5035831;28;20076;-69
2020/12/16 06:25:58;;;;;;;2.80;0.50;;;10.80;88.30;;;;;;5036389;28;20072;-69
2020/12/16 06:28:25;;;;;;;0.70;0.20;;;10.60;88.50;;;;;;5036434;28;20123;-69
2020/12/16 06:31:17;;;;;;;3.10;0.32;;;11.10;88.60;;;;;;5036764;28;20037;-70
2020/12/16 06:33:45;;;;;;;2.65;0.20;;;10.90;88.10;;;;;;5036186;28;20052;-69
2020/12/16 06:36:12;;;;;;;4.13;0.40;;;10.70;88.30;;;;;;5036635;28;20128;-69
2020/12/16 06:38:49;;;;;;;2.65;0.60;;;10.80;88.10;;;;;;5035789;28;20050;-69
2020/12/16 06:41:23;;;;;;;3.72;0.30;;;10.80;88.00;;;;;;5036541;28;20037;-69
2020/12/16 06:43:54;;;;;;;3.03;0.45;;;11.00;88.10;;;;;;5035898;28;20041;-69
2020/12/16 06:46:34;;;;;;;3.55;0.50;;;10.80;88.20;;;;;;5036019;28;20036;-69
2020/12/16 06:49:01;;;;;;;3.00;0.60;;;10.40;87.70;;;;;;5035556;28;20041;-69
2020/12/16 06:51:30;;;;;;;2.88;0.32;;;10.80;88.00;;;;;;5035926;28;20068;-69
2020/12/16 06:54:13;;;;;;;3.53;0.52;;;10.60;87.70;;;;;;5035369;28;20037;-70
2020/12/16 06:56:46;;;;;;;3.13;0.63;;;10.70;88.00;;;;;;5036238;28;20256;-69
2020/12/16 06:59:14;;;;;;;3.70;0.50;;;10.90;88.40;;;;;;5034861;28;20512;-69
2020/12/16 07:01:40;;;;;;;3.17;0.30;;;10.80;88.50;;;;;;5032579;28;20029;-69
2020/12/16 07:04:12;;;;;;;2.53;0.40;;;10.90;88.40;;;;;;5033441;28;20057;-69
2020/12/16 07:06:40;;;;;;;4.18;0.38;;;10.70;88.10;;;;;;5035083;28;20038;-69
2020/12/16 07:09:23;;;;;;;4.05;0.45;;;10.70;88.10;;;;;;5034275;28;20180;-69
2020/12/16 07:11:55;;;;;;;4.78;0.50;;;10.80;87.90;;;;;;5035015;28;20037;-70
2020/12/16 07:14:31;;;;;;;3.33;0.40;;;10.90;88.50;;;;;;5034952;28;20038;-70
2020/12/16 07:17:11;;;;;;;2.33;0.47;;;11.00;88.40;;;;;;5034722;28;20055;-71
2020/12/16 07:19:37;;;;;;;4.63;0.50;;;10.30;88.20;;;;;;5034770;28;20053;-71
2020/12/16 07:22:24;;;;;;;2.10;0.60;;;10.90;88.30;;;;;;5031284;28;20114;-70
2020/12/16 07:24:51;;;;;;;2.65;0.60;;;10.80;88.30;;;;;;5032036;28;20370;-70
2020/12/16 07:27:21;;;;;;;1.33;0.47;;;11.00;88.60;;;;;;5034465;28;20048;-70
2020/12/16 07:29:53;;;;;;;5.10;0.93;;;11.00;88.40;;;;;;5033760;28;20110;-70
2020/12/16 07:32:22;;;;;;;3.65;0.57;;;10.90;88.30;;;;;;5033506;28;20037;-70
2020/12/16 07:34:56;;;;;;;5.00;0.60;;;11.40;88.90;;;;;;5034645;28;20052;-70
2020/12/16 07:37:30;;;;;;;2.15;0.50;;;10.90;87.70;;;;;;5033848;28;20113;-70
2020/12/16 07:40:10;;;;;;;4.82;0.65;;;10.70;88.30;;;;;;5034027;28;20050;-70
2020/12/16 07:42:37;;;;;;;3.75;0.50;;;11.00;87.80;;;;;;5033817;28;20036;-70
2020/12/16 07:45:06;;;;;;;5.78;0.45;;;11.00;88.40;;;;;;5033771;28;20041;-70
2020/12/16 07:47:31;;;;;;;4.25;0.50;;;11.40;88.80;;;;;;5034699;28;20025;-70
2020/12/16 07:49:57;;;;;;;3.08;0.30;;;10.90;88.40;;;;;;5034058;28;20049;-70
2020/12/16 07:52:28;;;;;;;5.43;0.73;;;11.00;88.00;;;;;;5033044;28;20087;-70
2020/12/16 07:54:55;;;;;;;4.82;1.10;;;10.80;87.60;;;;;;5035192;28;20037;-71
2020/12/16 07:57:32;;;;;;;3.22;0.75;;;10.60;87.60;;;;;;5033999;28;20041;-72
2020/12/16 07:59:58;;;;;;;4.38;0.60;;;10.90;87.50;;;;;;5032643;28;20053;-71
2020/12/16 08:02:24;;;;;;;3.88;0.55;;;11.00;87.90;;;;;;5015713;28;20104;-71
2020/12/16 08:05:03;;;;;;;3.58;0.47;;;11.00;87.70;;;;;;5018916;28;20084;-71
2020/12/16 08:07:30;;;;;;;3.42;0.50;;;10.80;87.90;;;;;;5033617;28;20041;-71
2020/12/16 08:10:01;;;;;;;4.68;0.70;;;11.30;88.20;;;;;;5031838;28;20045;-71
2020/12/16 08:12:29;;;;;;;4.80;0.43;;;11.30;88.60;;;;;;5032778;28;20033;-71
2020/12/16 08:15:04;;;;;;;3.08;0.40;;;11.30;88.30;;;;;;5033595;28;20072;-71
2020/12/16 08:17:36;;;;;;;3.13;0.30;;;11.40;88.40;;;;;;5030647;28;20042;-71
2020/12/16 08:20:30;;;;;;;5.07;0.60;;;11.40;88.30;;;;;;5048675;28;20464;-71
2020/12/16 08:23:00;;;;;;;3.33;0.40;;;11.30;88.20;;;;;;5031650;28;20034;-72
2020/12/16 08:25:27;;;;;;;3.03;0.45;;;11.30;87.30;;;;;;5034735;28;20037;-72
2020/12/16 08:27:58;;;;;;;4.45;0.98;;;10.90;87.10;;;;;;5026510;28;20123;-72
2020/12/16 08:30:27;;;;;;;2.50;0.52;;;11.40;88.00;;;;;;5027992;28;20041;-72
2020/12/16 08:33:13;;;;;;;3.95;0.70;;;11.30;87.60;;;;;;5027998;28;20041;-72
2020/12/16 08:35:50;;;;;;;4.65;0.60;;;11.40;87.20;;;;;;5032429;28;20033;-72
2020/12/16 08:38:36;;;;;;;2.58;0.60;;;11.30;87.60;;;;;;5030920;28;20420;-72
2020/12/16 08:41:04;;;;;;;4.90;0.40;;;11.50;87.90;;;;;;5016254;28;20041;-72
2020/12/16 08:43:42;;;;;;;5.47;0.60;;;11.30;87.30;;;;;;5021842;28;20100;-73
2020/12/16 08:46:14;;;;;;;2.45;0.38;;;11.70;87.70;;;;;;5012508;28;20378;-72
2020/12/16 08:48:59;;;;;;;3.78;0.40;;;11.30;87.50;;;;;;5023732;28;20099;-72
2020/12/16 08:51:40;;;;;;;3.95;0.60;;;11.80;86.60;;;;;;5032211;28;20037;-73
2020/12/16 08:54:10;;;;;;;5.10;0.73;;;11.70;87.10;;;;;;5042101;28;20047;-72
2020/12/16 08:56:37;;;;;;;2.10;0.45;;;11.70;86.40;;;;;;5035542;28;20580;-72
2020/12/16 08:59:07;;;;;;;2.13;0.35;;;11.50;86.40;;;;;;5026111;28;20057;-72
2020/12/16 09:01:35;;;;;;;3.47;0.30;;;11.90;86.40;;;;;;5012952;28;20505;-72
2020/12/16 09:04:01;;;;;;;3.47;0.55;;;11.80;86.30;;;;;;5012886;28;20065;-72
2020/12/16 09:06:27;;;;;;;3.22;0.60;;;12.00;86.30;;;;;;5012778;28;20042;-71
2020/12/16 09:08:53;;;;;;;4.57;0.38;;;12.10;86.20;;;;;;5013599;28;20060;-72
2020/12/16 09:11:22;;;;;;;3.67;0.68;;;12.00;86.10;;;;;;5013374;28;20561;-72
2020/12/16 09:13:50;;;;;;;5.70;0.80;;;12.20;86.10;;;;;;5012402;28;20520;-71
2020/12/16 09:16:23;;;;;;;6.00;0.55;;;11.80;85.80;;;;;;5012114;28;20041;-73
2020/12/16 09:18:50;;;;;;;3.33;0.50;;;12.20;86.00;;;;;;5021042;28;20046;-73
2020/12/16 09:21:34;;;;;;;5.10;0.57;;;12.30;86.60;;;;;;5037194;28;20095;-73
2020/12/16 09:24:01;;;;;;;4.05;0.63;;;12.50;85.70;;;;;;5017734;28;20133;-73
2020/12/16 09:26:43;;;;;;;4.38;0.57;;;12.50;85.60;;;;;;5019930;28;20041;-73
2020/12/16 09:29:17;;;;;;;3.95;0.70;;;12.40;85.50;;;;;;5039205;28;20041;-73
2020/12/16 09:31:44;;;;;;;3.58;0.40;;;12.70;85.40;;;;;;5036741;28;20156;-73
2020/12/16 09:34:10;;;;;;;5.35;0.70;;;12.80;85.20;;;;;;5035924;28;20033;-72
2020/12/16 09:36:36;;;;;;;3.53;0.50;;;13.00;85.10;;;;;;5038484;28;20056;-72
2020/12/16 09:39:04;;;;;;;4.55;0.50;;;12.90;84.70;;;;;;5036597;28;20159;-72
2020/12/16 09:41:44;;;;;;;2.72;0.57;;;13.10;84.60;;;;;;5036733;28;20060;-72
2020/12/16 09:44:28;;;;;;;3.95;0.60;;;13.00;84.30;;;;;;5036174;28;20098;-71
2020/12/16 09:46:55;;;;;;;2.78;0.40;;;13.10;84.00;;;;;;5036300;28;20068;-72
2020/12/16 09:49:21;;;;;;;5.13;0.55;;;13.10;84.00;;;;;;5036577;28;20041;-72
2020/12/16 09:51:47;;;;;;;3.53;0.45;;;13.30;84.10;;;;;;5035851;28;20037;-72
2020/12/16 09:54:42;;;;;;;3.28;0.30;;;13.30;83.90;;;;;;5036769;28;20511;-72
2020/12/16 09:57:09;;;;;;;4.87;0.50;;;13.20;84.00;;;;;;5025750;28;20037;-72
2020/12/16 09:59:36;;;;;;;6.43;0.65;;;13.20;83.60;;;;;;5038222;28;20049;-72
2020/12/16 10:02:03;;;;;;;4.38;0.50;;;13.60;83.70;;;;;;5045001;28;20047;-72
2020/12/16 10:04:29;;;;;;;3.97;0.70;;;13.50;83.40;;;;;;5056804;28;20503;-72
2020/12/16 10:06:55;;;;;;;3.78;0.20;;;13.40;83.30;;;;;;5055742;28;20029;-73
2020/12/16 10:09:21;;;;;;;5.10;0.80;;;13.70;83.30;;;;;;5036368;28;20064;-72
2020/12/16 10:11:48;;;;;;;4.13;0.50;;;13.30;82.90;;;;;;5048571;28;20041;-72
2020/12/16 10:14:17;;;;;;;3.72;0.40;;;13.80;83.10;;;;;;5035863;28;20496;-72
2020/12/16 10:16:47;;;;;;;3.25;0.50;;;13.80;82.80;;;;;;5051630;28;20043;-71
2020/12/16 10:19:16;;;;;;;6.75;0.68;;;13.60;82.70;;;;;;5055190;28;20079;-72
2020/12/16 10:21:46;;;;;;;6.18;0.95;;;13.90;82.80;;;;;;5054626;28;20120;-72
2020/12/16 10:24:12;;;;;;;5.05;0.63;;;13.90;82.60;;;;;;5055390;28;20055;-72
2020/12/16 10:26:38;;;;;;;4.07;0.80;;;14.00;82.70;;;;;;5053351;28;20044;-73
2020/12/16 10:29:04;;;;;;;5.15;0.88;;;14.10;82.50;;;;;;5027938;28;20100;-73
2020/12/16 10:31:30;;;;;;;3.83;0.60;;;14.40;82.50;;;;;;5015862;28;20120;-73
2020/12/16 10:33:55;;;;;;;5.68;0.60;;;14.80;82.30;;;;;;5031770;28;20523;-74
2020/12/16 10:36:21;;;;;;;7.47;0.73;;;15.20;81.60;;;;;;5035986;28;20060;-73
2020/12/16 10:38:47;;;;;;;3.97;0.73;;;15.40;80.80;;;;;;5035953;28;20056;-74
2020/12/16 10:41:13;;;;;;;4.78;0.73;;;15.60;80.20;;;;;;5036088;28;20041;-73
2020/12/16 10:43:39;;;;;;;4.38;0.45;;;15.70;80.00;;;;;;5052153;28;20079;-73
2020/12/16 10:46:10;;;;;;;6.30;0.75;;;15.40;79.40;;;;;;5055334;28;20059;-73
2020/12/16 10:48:36;;;;;;;7.40;0.70;;;15.30;79.20;;;;;;5055336;28;20037;-73
2020/12/16 10:51:03;;;;;;;5.03;0.50;;;15.10;79.20;;;;;;5054892;28;20041;-73
2020/12/16 10:53:29;;;;;;;7.60;0.88;;;15.30;79.00;;;;;;5055575;28;20045;-73
2020/12/16 10:55:56;;;;;;;2.03;0.40;;;15.30;79.10;;;;;;5055443;28;20044;-73
2020/12/16 10:58:22;;;;;;;5.47;0.50;;;15.40;78.90;;;;;;5054785;28;20094;-72
2020/12/16 11:00:48;;;;;;;3.65;0.70;;;15.60;78.40;;;;;;5055205;28;20045;-73
2020/12/16 11:03:14;;;;;;;3.70;0.65;;;15.70;78.40;;;;;;5055150;28;20397;-73
2020/12/16 11:05:40;;;;;;;7.43;0.63;;;15.80;78.20;;;;;;5054497;28;20045;-73
2020/12/16 11:08:06;;;;;;;4.18;0.60;;;15.90;77.90;;;;;;5055479;28;20084;-73
2020/12/16 11:10:31;;;;;;;5.63;0.80;;;15.90;77.20;;;;;;5055115;28;20094;-73
2020/12/16 11:12:57;;;;;;;3.40;0.45;;;16.00;77.10;;;;;;5054429;28;20041;-73
2020/12/16 11:15:23;;;;;;;2.55;0.50;;;16.00;76.70;;;;;;5054673;28;20435;-73
2020/12/16 11:17:49;;;;;;;4.53;0.70;;;16.20;76.50;;;;;;5054872;28;20519;-73
2020/12/16 11:20:14;;;;;;;6.43;0.50;;;16.10;76.30;;;;;;5054664;28;20044;-73
2020/12/16 11:22:40;;;;;;;5.63;0.73;;;15.80;76.00;;;;;;5054830;28;20044;-73
2020/12/16 11:25:06;;;;;;;6.47;0.70;;;15.90;76.10;;;;;;5055244;28;20068;-73
2020/12/16 11:27:32;;;;;;;5.78;0.52;;;15.70;76.10;;;;;;5054051;28;20120;-73
2020/12/16 11:29:58;;;;;;;7.10;0.80;;;15.70;76.40;;;;;;5051799;28;20048;-73
2020/12/16 11:32:24;;;;;;;4.05;0.55;;;15.60;76.10;;;;;;5034742;28;20045;-73
2020/12/16 11:34:49;;;;;;;6.30;0.73;;;15.50;76.20;;;;;;5032278;28;20087;-73
2020/12/16 11:37:15;;;;;;;6.88;0.80;;;15.60;76.20;;;;;;5035178;28;20041;-73
2020/12/16 11:39:44;;;;;;;6.82;0.75;;;15.50;76.10;;;;;;5034352;28;20045;-73
2020/12/16 11:42:10;;;;;;;6.20;0.70;;;15.40;76.00;;;;;;5034176;28;20060;-73
2020/12/16 11:44:36;;;;;;;4.90;1.02;;;15.50;76.00;;;;;;5034831;28;20481;-73
2020/12/16 11:47:04;;;;;;;5.88;0.60;;;15.60;76.10;;;;;;5034237;28;20043;-73
2020/12/16 11:49:30;;;;;;;4.05;0.60;;;15.40;76.40;;;;;;5034852;28;20045;-73
2020/12/16 11:51:56;;;;;;;5.85;0.80;;;15.30;75.90;;;;;;5034959;28;20508;-74
2020/12/16 11:54:22;;;;;;;5.78;0.73;;;15.30;75.80;;;;;;5035295;28;20060;-74
2020/12/16 11:56:48;;;;;;;10.30;0.85;;;15.20;75.80;;;;;;5034047;28;20038;-74
2020/12/16 11:59:14;;;;;;;6.28;0.60;;;15.20;75.90;;;;;;5034055;28;20045;-73
2020/12/16 12:01:42;;;;;;;4.95;0.60;;;15.40;75.90;;;;;;5034095;28;20048;-73
2020/12/16 12:04:08;;;;;;;4.18;0.60;;;15.30;75.80;;;;;;5034417;28;20103;-74
2020/12/16 12:06:33;;;;;;;5.60;0.77;;;15.20;76.00;;;;;;5034697;28;20033;-73
2020/12/16 12:08:59;;;;;;;5.03;0.90;;;15.10;76.00;;;;;;5034277;28;20041;-74
2020/12/16 12:11:25;;;;;;;5.03;0.52;;;14.90;76.00;;;;;;5034123;28;20037;-74
2020/12/16 12:13:52;;;;;;;5.88;0.82;;;15.40;76.20;;;;;;5034093;28;20120;-75
2020/12/16 12:16:18;;;;;;;6.25;0.60;;;15.60;76.10;;;;;;5034426;28;20084;-75
2020/12/16 12:18:44;;;;;;;4.88;0.60;;;15.60;75.60;;;;;;5034759;28;20492;-75
2020/12/16 12:21:11;;;;;;;3.40;0.40;;;15.80;75.40;;;;;;5033300;28;20037;-75
2020/12/16 12:23:37;;;;;;;4.82;0.60;;;15.60;75.30;;;;;;5034448;28;20029;-76
2020/12/16 12:26:04;;;;;;;6.35;0.80;;;15.40;75.30;;;;;;5034499;28;20094;-76
2020/12/16 12:28:30;;;;;;;8.50;0.80;;;15.80;75.70;;;;;;5034416;28;20048;-77
2020/12/16 12:30:56;;;;;;;7.60;0.77;;;15.60;75.50;;;;;;5034460;28;20037;-76
2020/12/16 12:33:23;;;;;;;6.10;0.80;;;15.50;75.70;;;;;;5034107;28;20037;-76
2020/12/16 12:35:49;;;;;;;7.72;1.00;;;15.50;75.70;;;;;;5032831;28;20435;-75
2020/12/16 12:38:15;;;;;;;7.35;0.98;;;15.60;75.80;;;;;;5034018;28;20045;-74
2020/12/16 12:40:42;;;;;;;5.72;1.10;;;15.40;75.70;;;;;;5034231;28;20083;-75
2020/12/16 12:43:08;;;;;;;7.93;0.77;;;15.60;75.80;;;;;;5031350;28;20048;-76
2020/12/16 12:45:34;;;;;;;6.75;1.00;;;15.40;75.80;;;;;;5033895;28;20034;-76
2020/12/16 12:48:00;;;;;;;8.77;1.00;;;15.20;75.80;;;;;;5034150;28;20039;-76
2020/12/16 12:50:26;;;;;;;7.72;1.27;;;15.30;76.00;;;;;;5034128;28;20120;-76
2020/12/16 12:52:52;;;;;;;6.85;0.80;;;15.30;76.20;;;;;;5033309;28;20079;-76
2020/12/16 12:55:18;;;;;;;6.10;0.80;;;15.30;76.10;;;;;;5034097;28;20121;-77